createdAt,value
2018-03-17T00:02:11.290Z,1.70
2018-03-17T00:04:40.780Z,1.80
2018-03-17T00:07:09.473Z,1.70
2018-03-17T00:09:38.206Z,1.60
2018-03-17T00:12:06.906Z,1.50
2018-03-17T00:14:35.595Z,1.50
2018-03-17T00:17:04.308Z,1.60
2018-03-17T00:19:33.015Z,1.50
2018-03-17T00:22:02.489Z,1.70
2018-03-17T00:24:31.293Z,1.60
2018-03-17T00:26:59.746Z,1.90
2018-03-17T00:29:28.467Z,1.90
2018-03-17T00:31:57.168Z,2.00
2018-03-17T00:34:25.618Z,1.80
2018-03-17T00:36:54.334Z,2.10
2018-03-17T00:39:22.784Z,1.90
2018-03-17T00:41:51.504Z,1.80
2018-03-17T00:44:20.207Z,1.80
2018-03-17T00:46:48.787Z,2.10
2018-03-17T00:49:18.274Z,2.30
2018-03-17T00:51:46.987Z,2.20
2018-03-17T00:54:16.258Z,2.40
2018-03-17T00:56:44.900Z,2.40
2018-03-17T00:59:13.614Z,2.20
2018-03-17T01:01:42.807Z,2.70
2018-03-17T01:04:11.542Z,2.60
2018-03-17T01:06:39.983Z,2.80
2018-03-17T01:09:08.062Z,2.90
2018-03-17T01:11:36.791Z,2.90
2018-03-17T01:14:04.898Z,3.00
2018-03-17T01:16:33.341Z,3.00
2018-03-17T01:19:01.778Z,3.00
2018-03-17T01:21:30.214Z,3.10
2018-03-17T01:23:58.757Z,2.80
2018-03-17T01:26:27.950Z,2.70
2018-03-17T01:28:57.169Z,2.60
2018-03-17T01:31:25.594Z,2.60
2018-03-17T01:33:54.020Z,2.50
2018-03-17T01:36:23.218Z,2.20
2018-03-17T01:38:52.430Z,2.10
2018-03-17T01:41:20.942Z,2.00
2018-03-17T01:43:49.374Z,2.10
2018-03-17T01:46:18.587Z,2.20
2018-03-17T01:48:47.779Z,2.30
2018-03-17T01:51:16.995Z,2.20
2018-03-17T01:53:45.426Z,2.20
2018-03-17T01:56:14.079Z,2.20
2018-03-17T01:58:42.574Z,2.30
2018-03-17T02:01:10.687Z,2.40
2018-03-17T02:03:39.891Z,3.00
2018-03-17T02:06:09.126Z,3.30
2018-03-17T02:08:37.567Z,3.20
2018-03-17T02:11:06.007Z,3.40
2018-03-17T02:13:34.479Z,3.50
2018-03-17T02:16:02.913Z,3.50
2018-03-17T02:18:31.399Z,3.50
2018-03-17T02:21:00.098Z,3.60
2018-03-17T02:23:29.302Z,3.60
2018-03-17T02:25:58.502Z,3.60
2018-03-17T02:28:27.906Z,3.60
2018-03-17T02:30:57.102Z,3.30
2018-03-17T02:33:26.307Z,3.50
2018-03-17T02:35:55.493Z,3.50
2018-03-17T02:38:24.686Z,3.50
2018-03-17T02:40:53.122Z,3.50
2018-03-17T02:43:21.750Z,3.60
2018-03-17T02:45:50.203Z,3.60
2018-03-17T02:48:18.650Z,3.70
2018-03-17T02:50:47.074Z,3.80
2018-03-17T02:53:15.517Z,3.90
2018-03-17T02:55:44.111Z,3.90
2018-03-17T02:58:12.546Z,3.90
2018-03-17T03:00:40.995Z,3.90
2018-03-17T03:03:09.430Z,4.00
2018-03-17T03:05:38.651Z,3.90
2018-03-17T03:08:07.076Z,3.80
2018-03-17T03:10:35.527Z,4.10
2018-03-17T03:13:04.826Z,4.10
2018-03-17T03:15:33.281Z,4.10
2018-03-17T03:18:02.568Z,4.20
2018-03-17T03:20:31.774Z,4.10
2018-03-17T03:23:00.990Z,4.10
2018-03-17T03:25:29.488Z,4.00
2018-03-17T03:27:57.923Z,4.10
2018-03-17T03:30:26.356Z,4.00
2018-03-17T03:32:54.794Z,4.00
2018-03-17T03:35:23.994Z,4.10
2018-03-17T03:37:53.209Z,4.10
2018-03-17T03:40:21.640Z,4.00
2018-03-17T03:42:50.206Z,4.10
2018-03-17T03:45:18.634Z,4.20
2018-03-17T03:47:47.843Z,4.10
2018-03-17T03:50:16.286Z,4.10
2018-03-17T03:52:44.749Z,4.10
2018-03-17T03:55:13.182Z,4.10
2018-03-17T03:57:42.646Z,4.00
2018-03-17T04:00:11.095Z,4.00
2018-03-17T04:02:40.820Z,4.00
2018-03-17T04:05:09.257Z,3.90
2018-03-17T04:07:38.817Z,3.80
2018-03-17T04:10:07.251Z,3.80
2018-03-17T04:12:36.658Z,3.80
2018-03-17T04:15:05.867Z,3.80
2018-03-17T04:17:34.748Z,3.60
2018-03-17T04:20:03.625Z,3.60
2018-03-17T08:09:37.603Z,2.20
2018-03-17T11:41:45.888Z,1.50
2018-03-17T11:56:43.086Z,1.90
2018-03-17T11:59:11.815Z,2.10
2018-03-17T12:01:40.941Z,1.80
2018-03-17T14:46:29.970Z,1.00
2018-03-17T16:13:51.644Z,0.40
2018-03-17T16:26:20.654Z,0.30
2018-03-17T16:38:53.350Z,0.30
2018-03-17T16:43:53.775Z,0.30
2018-03-17T16:48:52.455Z,0.30
2018-03-17T16:51:22.705Z,0.20
2018-03-17T17:01:21.626Z,0.40
2018-03-17T17:06:20.498Z,0.10
2018-03-17T17:08:49.634Z,0.30
2018-03-17T17:11:19.872Z,0.30
2018-03-17T17:21:18.624Z,0.10
2018-03-17T17:23:48.565Z,0.00
2018-03-17T17:33:46.543Z,0.10
2018-03-17T17:36:15.688Z,-0.10
2018-03-17T17:41:14.593Z,0.00
2018-03-17T17:46:13.608Z,0.10
2018-03-17T18:11:10.785Z,-0.20
2018-03-17T18:13:39.563Z,-0.20
2018-03-17T18:16:08.664Z,-0.20
2018-03-17T18:23:38.482Z,-0.10
2018-03-17T18:26:07.731Z,-0.20
2018-03-17T19:08:33.618Z,-0.40
2018-03-17T19:16:02.604Z,-0.40
2018-03-17T19:26:01.584Z,-0.60
2018-03-17T19:31:00.341Z,-0.70
2018-03-17T19:33:29.093Z,-0.70
2018-03-17T19:35:58.591Z,-0.80
2018-03-17T19:38:28.106Z,-0.80
2018-03-17T19:48:26.115Z,-0.80
2018-03-17T19:50:55.610Z,-0.80
2018-03-17T19:53:24.731Z,-0.70
2018-03-17T19:55:54.247Z,-0.80
2018-03-17T19:58:23.027Z,-0.90
2018-03-17T20:03:22.251Z,-0.90
2018-03-17T20:05:51.371Z,-0.70
2018-03-17T20:15:49.847Z,-1.00
2018-03-17T20:20:48.566Z,-1.00
2018-03-17T20:25:47.055Z,-1.20
2018-03-17T20:28:15.884Z,-1.10
2018-03-17T20:30:44.646Z,-1.10
2018-03-17T20:35:44.075Z,-1.30
2018-03-17T20:38:13.571Z,-1.20
2018-03-17T20:43:12.869Z,-1.30
2018-03-17T20:45:41.571Z,-1.30
2018-03-17T20:48:10.311Z,-1.10
2018-03-17T20:50:39.066Z,-1.30
2018-03-17T20:53:09.292Z,-1.20
2018-03-17T20:55:38.807Z,-1.20
2018-03-17T21:00:37.270Z,-1.40
2018-03-17T21:03:06.400Z,-1.40
2018-03-17T21:05:35.918Z,-1.50
2018-03-17T21:10:35.150Z,-1.50
2018-03-17T21:13:05.486Z,-1.40
2018-03-17T21:15:34.260Z,-1.30
2018-03-17T21:18:02.979Z,-1.40
2018-03-17T21:20:31.702Z,-1.50
2018-03-17T21:25:30.995Z,-1.50
2018-03-17T21:27:59.775Z,-1.80
2018-03-17T21:30:28.507Z,-1.70
2018-03-17T21:32:57.418Z,-1.80
2018-03-17T21:35:26.926Z,-1.80
2018-03-17T21:37:56.485Z,-1.80
2018-03-17T21:40:26.093Z,-1.90
2018-03-17T21:42:54.821Z,-2.00
2018-03-17T21:45:25.116Z,-1.80
2018-03-17T21:47:54.240Z,-2.00
2018-03-17T21:50:23.795Z,-1.70
2018-03-17T21:52:52.924Z,-1.90
2018-03-17T22:12:50.935Z,-2.20
2018-03-17T22:15:19.659Z,-2.20
2018-03-17T22:17:48.414Z,-2.00
2018-03-17T22:20:17.229Z,-2.20
2018-03-17T22:22:46.136Z,-2.20
2018-03-17T22:25:15.060Z,-2.30
2018-03-17T22:27:43.804Z,-2.30
2018-03-17T22:30:12.627Z,-2.20
2018-03-17T22:32:41.371Z,-2.10
2018-03-17T22:35:10.844Z,-2.50
2018-03-17T22:37:39.575Z,-2.50
2018-03-17T22:40:08.319Z,-2.60
2018-03-17T22:45:07.615Z,-2.50
2018-03-17T22:47:36.346Z,-2.50
2018-03-17T22:50:05.467Z,-2.20
2018-03-17T22:52:35.050Z,-2.10
2018-03-17T22:55:05.323Z,-2.30
2018-03-17T22:57:34.801Z,-2.30
2018-03-17T23:05:03.523Z,-2.50
2018-03-17T23:10:01.963Z,-2.50
2018-03-17T23:12:30.730Z,-2.50
2018-03-17T23:14:59.875Z,-2.40
2018-03-17T23:17:28.414Z,-2.50
2018-03-17T23:19:56.962Z,-2.40
2018-03-17T23:22:26.455Z,-2.60
2018-03-17T23:24:55.596Z,-2.70
2018-03-17T23:27:24.326Z,-2.60
2018-03-17T23:29:52.838Z,-2.50
2018-03-17T23:32:22.026Z,-2.80
2018-03-17T23:34:50.758Z,-2.70
2018-03-17T23:37:19.467Z,-2.80
2018-03-17T23:39:48.411Z,-2.70
2018-03-17T23:42:17.173Z,-2.70
2018-03-17T23:44:45.868Z,-2.60
2018-03-17T23:47:14.363Z,-2.80
2018-03-17T23:49:42.920Z,-2.80
2018-03-17T23:52:11.528Z,-2.70
2018-03-17T23:54:40.083Z,-2.60
2018-03-17T23:57:08.615Z,-2.80
2018-03-17T23:59:37.927Z,-2.80
